sensor_id;sensor_type;location;lat;lon;timestamp;P1;durP1;ratioP1;P2;durP2;ratioP2
3197;SDS011;1611;49.394;11.136;2023-02-20T00:00:34;8.90;;;5.93;;
3197;SDS011;1611;49.394;11.136;2023-02-20T00:03:06;8.03;;;6.90;;
3197;SDS011;1611;49.394;11.136;2023-02-20T00:05:33;9.40;;;7.00;;
3197;SDS011;1611;49.394;11.136;2023-02-20T00:08:00;11.27;;;6.57;;
3197;SDS011;1611;49.394;11.136;2023-02-20T00:10:27;10.20;;;6.80;;
3197;SDS011;1611;49.394;11.136;2023-02-20T00:12:56;9.55;;;6.90;;
3197;SDS011;1611;49.394;11.136;2023-02-20T00:15:25;14.38;;;7.47;;
3197;SDS011;1611;49.394;11.136;2023-02-20T00:17:52;8.00;;;7.20;;
3197;SDS011;1611;49.394;11.136;2023-02-20T00:20:21;8.10;;;7.30;;
3197;SDS011;1611;49.394;11.136;2023-02-20T00:22:49;11.00;;;7.25;;
3197;SDS011;1611;49.394;11.136;2023-02-20T00:25:17;8.98;;;7.13;;
3197;SDS011;1611;49.394;11.136;2023-02-20T00:27:45;13.57;;;7.03;;
3197;SDS011;1611;49.394;11.136;2023-02-20T00:30:13;9.30;;;7.22;;
3197;SDS011;1611;49.394;11.136;2023-02-20T00:32:42;8.23;;;7.43;;
3197;SDS011;1611;49.394;11.136;2023-02-20T00:35:10;13.20;;;7.53;;
3197;SDS011;1611;49.394;11.136;2023-02-20T00:37:39;8.83;;;8.00;;
3197;SDS011;1611;49.394;11.136;2023-02-20T00:40:09;12.18;;;8.02;;
3197;SDS011;1611;49.394;11.136;2023-02-20T00:42:36;12.90;;;7.35;;
3197;SDS011;1611;49.394;11.136;2023-02-20T00:45:03;10.57;;;8.50;;
3197;SDS011;1611;49.394;11.136;2023-02-20T00:47:31;13.00;;;7.70;;
3197;SDS011;1611;49.394;11.136;2023-02-20T00:49:58;11.07;;;8.23;;
3197;SDS011;1611;49.394;11.136;2023-02-20T00:52:25;17.42;;;8.25;;
3197;SDS011;1611;49.394;11.136;2023-02-20T00:54:53;16.10;;;9.27;;
3197;SDS011;1611;49.394;11.136;2023-02-20T00:57:22;11.67;;;7.30;;
3197;SDS011;1611;49.394;11.136;2023-02-20T00:59:51;15.00;;;8.70;;
3197;SDS011;1611;49.394;11.136;2023-02-20T01:02:18;16.17;;;8.73;;
3197;SDS011;1611;49.394;11.136;2023-02-20T01:04:45;13.27;;;8.20;;
3197;SDS011;1611;49.394;11.136;2023-02-20T01:07:12;13.57;;;8.85;;
3197;SDS011;1611;49.394;11.136;2023-02-20T01:09:43;16.73;;;8.70;;
3197;SDS011;1611;49.394;11.136;2023-02-20T01:12:11;15.43;;;8.90;;
3197;SDS011;1611;49.394;11.136;2023-02-20T01:14:38;17.85;;;8.77;;
3197;SDS011;1611;49.394;11.136;2023-02-20T01:17:05;19.20;;;9.68;;
3197;SDS011;1611;49.394;11.136;2023-02-20T01:19:32;15.23;;;8.25;;
3197;SDS011;1611;49.394;11.136;2023-02-20T01:21:59;18.33;;;9.37;;
3197;SDS011;1611;49.394;11.136;2023-02-20T01:24:30;15.77;;;8.80;;
3197;SDS011;1611;49.394;11.136;2023-02-20T01:26:57;14.15;;;8.20;;
3197;SDS011;1611;49.394;11.136;2023-02-20T01:29:25;18.90;;;9.97;;
3197;SDS011;1611;49.394;11.136;2023-02-20T01:31:52;12.07;;;9.30;;
3197;SDS011;1611;49.394;11.136;2023-02-20T01:34:20;14.20;;;8.57;;
3197;SDS011;1611;49.394;11.136;2023-02-20T01:36:47;14.85;;;8.73;;
3197;SDS011;1611;49.394;11.136;2023-02-20T01:39:16;20.33;;;9.07;;
3197;SDS011;1611;49.394;11.136;2023-02-20T01:41:46;17.35;;;9.23;;
3197;SDS011;1611;49.394;11.136;2023-02-20T01:44:16;12.60;;;8.77;;
3197;SDS011;1611;49.394;11.136;2023-02-20T01:46:49;17.88;;;8.75;;
3197;SDS011;1611;49.394;11.136;2023-02-20T01:49:25;11.73;;;8.60;;
3197;SDS011;1611;49.394;11.136;2023-02-20T01:51:57;12.75;;;8.57;;
3197;SDS011;1611;49.394;11.136;2023-02-20T01:54:30;18.17;;;9.20;;
3197;SDS011;1611;49.394;11.136;2023-02-20T01:56:58;14.68;;;9.15;;
3197;SDS011;1611;49.394;11.136;2023-02-20T01:59:27;14.85;;;9.20;;
3197;SDS011;1611;49.394;11.136;2023-02-20T02:01:58;13.38;;;9.45;;
3197;SDS011;1611;49.394;11.136;2023-02-20T02:04:25;17.20;;;8.70;;
3197;SDS011;1611;49.394;11.136;2023-02-20T02:06:54;20.33;;;9.57;;
3197;SDS011;1611;49.394;11.136;2023-02-20T02:09:24;14.15;;;10.45;;
3197;SDS011;1611;49.394;11.136;2023-02-20T02:12:01;19.13;;;9.18;;
3197;SDS011;1611;49.394;11.136;2023-02-20T02:14:32;14.77;;;9.60;;
3197;SDS011;1611;49.394;11.136;2023-02-20T02:17:09;18.67;;;9.07;;
3197;SDS011;1611;49.394;11.136;2023-02-20T02:26:07;16.30;;;10.63;;
3197;SDS011;1611;49.394;11.136;2023-02-20T02:34:55;16.17;;;9.15;;
3197;SDS011;1611;49.394;11.136;2023-02-20T02:37:48;16.80;;;9.33;;
3197;SDS011;1611;49.394;11.136;2023-02-20T02:40:27;16.30;;;9.63;;
3197;SDS011;1611;49.394;11.136;2023-02-20T02:43:06;21.65;;;10.23;;
3197;SDS011;1611;49.394;11.136;2023-02-20T02:45:40;16.13;;;9.57;;
3197;SDS011;1611;49.394;11.136;2023-02-20T02:48:12;15.50;;;10.90;;
3197;SDS011;1611;49.394;11.136;2023-02-20T02:50:43;20.83;;;11.70;;
3197;SDS011;1611;49.394;11.136;2023-02-20T02:53:14;24.92;;;11.70;;
3197;SDS011;1611;49.394;11.136;2023-02-20T02:55:41;21.13;;;11.13;;
3197;SDS011;1611;49.394;11.136;2023-02-20T02:58:08;20.70;;;10.60;;
3197;SDS011;1611;49.394;11.136;2023-02-20T03:00:39;16.35;;;11.20;;
3197;SDS011;1611;49.394;11.136;2023-02-20T03:03:11;17.67;;;11.27;;
3197;SDS011;1611;49.394;11.136;2023-02-20T03:05:42;17.53;;;12.07;;
3197;SDS011;1611;49.394;11.136;2023-02-20T03:08:17;23.58;;;11.07;;
3197;SDS011;1611;49.394;11.136;2023-02-20T03:10:55;18.25;;;10.88;;
3197;SDS011;1611;49.394;11.136;2023-02-20T03:13:27;15.45;;;10.40;;
3197;SDS011;1611;49.394;11.136;2023-02-20T03:16:13;14.40;;;10.43;;
3197;SDS011;1611;49.394;11.136;2023-02-20T03:18:43;18.83;;;10.30;;
3197;SDS011;1611;49.394;11.136;2023-02-20T03:21:14;12.80;;;10.10;;
3197;SDS011;1611;49.394;11.136;2023-02-20T03:23:48;18.85;;;9.85;;
3197;SDS011;1611;49.394;11.136;2023-02-20T03:26:21;18.08;;;9.93;;
3197;SDS011;1611;49.394;11.136;2023-02-20T03:28:54;19.38;;;11.95;;
3197;SDS011;1611;49.394;11.136;2023-02-20T03:31:30;21.25;;;12.73;;
3197;SDS011;1611;49.394;11.136;2023-02-20T03:34:02;22.30;;;13.50;;
3197;SDS011;1611;49.394;11.136;2023-02-20T03:36:51;19.65;;;12.85;;
3197;SDS011;1611;49.394;11.136;2023-02-20T03:39:41;20.73;;;13.18;;
3197;SDS011;1611;49.394;11.136;2023-02-20T03:42:28;24.45;;;13.07;;
3197;SDS011;1611;49.394;11.136;2023-02-20T03:45:16;17.58;;;13.20;;
3197;SDS011;1611;49.394;11.136;2023-02-20T03:47:49;15.63;;;12.05;;
3197;SDS011;1611;49.394;11.136;2023-02-20T03:50:19;19.85;;;12.90;;
3197;SDS011;1611;49.394;11.136;2023-02-20T03:52:46;19.25;;;12.25;;
3197;SDS011;1611;49.394;11.136;2023-02-20T03:55:16;18.13;;;10.82;;
3197;SDS011;1611;49.394;11.136;2023-02-20T03:57:44;27.00;;;14.47;;
3197;SDS011;1611;49.394;11.136;2023-02-20T04:00:14;17.58;;;12.68;;
3197;SDS011;1611;49.394;11.136;2023-02-20T04:02:45;18.87;;;13.83;;
3197;SDS011;1611;49.394;11.136;2023-02-20T04:05:17;24.45;;;12.30;;
3197;SDS011;1611;49.394;11.136;2023-02-20T04:07:49;20.63;;;12.98;;
3197;SDS011;1611;49.394;11.136;2023-02-20T04:10:23;22.50;;;13.40;;
3197;SDS011;1611;49.394;11.136;2023-02-20T04:12:54;18.10;;;12.57;;
3197;SDS011;1611;49.394;11.136;2023-02-20T04:15:22;20.55;;;12.73;;
3197;SDS011;1611;49.394;11.136;2023-02-20T04:17:54;25.45;;;13.57;;
3197;SDS011;1611;49.394;11.136;2023-02-20T04:20:24;31.20;;;13.40;;
3197;SDS011;1611;49.394;11.136;2023-02-20T04:22:52;27.83;;;12.98;;
3197;SDS011;1611;49.394;11.136;2023-02-20T04:25:28;21.50;;;12.30;;
3197;SDS011;1611;49.394;11.136;2023-02-20T04:27:59;18.03;;;10.63;;
3197;SDS011;1611;49.394;11.136;2023-02-20T04:30:27;17.50;;;11.02;;
3197;SDS011;1611;49.394;11.136;2023-02-20T04:32:54;17.05;;;10.93;;
3197;SDS011;1611;49.394;11.136;2023-02-20T04:35:21;13.30;;;9.90;;
3197;SDS011;1611;49.394;11.136;2023-02-20T04:37:48;17.35;;;11.32;;
3197;SDS011;1611;49.394;11.136;2023-02-20T04:40:16;22.98;;;12.45;;
3197;SDS011;1611;49.394;11.136;2023-02-20T04:42:52;19.73;;;12.20;;
3197;SDS011;1611;49.394;11.136;2023-02-20T04:45:19;21.98;;;11.75;;
3197;SDS011;1611;49.394;11.136;2023-02-20T04:47:46;20.23;;;12.40;;
3197;SDS011;1611;49.394;11.136;2023-02-20T04:50:15;17.75;;;11.32;;
3197;SDS011;1611;49.394;11.136;2023-02-20T04:52:46;20.80;;;11.93;;
3197;SDS011;1611;49.394;11.136;2023-02-20T04:55:17;20.02;;;12.55;;
3197;SDS011;1611;49.394;11.136;2023-02-20T04:57:45;20.38;;;11.68;;
3197;SDS011;1611;49.394;11.136;2023-02-20T05:00:17;22.02;;;11.80;;
3197;SDS011;1611;49.394;11.136;2023-02-20T05:02:45;23.35;;;12.15;;
3197;SDS011;1611;49.394;11.136;2023-02-20T05:05:15;19.73;;;11.88;;
3197;SDS011;1611;49.394;11.136;2023-02-20T05:07:43;20.83;;;11.25;;
3197;SDS011;1611;49.394;11.136;2023-02-20T05:10:14;17.15;;;10.98;;
3197;SDS011;1611;49.394;11.136;2023-02-20T05:12:41;18.88;;;11.32;;
3197;SDS011;1611;49.394;11.136;2023-02-20T05:15:08;17.58;;;10.63;;
3197;SDS011;1611;49.394;11.136;2023-02-20T05:17:42;17.45;;;10.52;;
3197;SDS011;1611;49.394;11.136;2023-02-20T05:20:12;12.73;;;9.50;;
3197;SDS011;1611;49.394;11.136;2023-02-20T05:22:40;17.05;;;11.05;;
3197;SDS011;1611;49.394;11.136;2023-02-20T05:25:08;11.52;;;9.10;;
3197;SDS011;1611;49.394;11.136;2023-02-20T05:27:35;14.50;;;9.93;;
3197;SDS011;1611;49.394;11.136;2023-02-20T05:30:02;16.77;;;9.75;;
3197;SDS011;1611;49.394;11.136;2023-02-20T05:32:30;20.57;;;9.03;;
3197;SDS011;1611;49.394;11.136;2023-02-20T05:34:58;20.88;;;9.95;;
3197;SDS011;1611;49.394;11.136;2023-02-20T05:37:25;9.95;;;8.60;;
3197;SDS011;1611;49.394;11.136;2023-02-20T05:39:53;14.57;;;9.00;;
3197;SDS011;1611;49.394;11.136;2023-02-20T05:42:20;13.45;;;9.38;;
3197;SDS011;1611;49.394;11.136;2023-02-20T05:44:47;15.38;;;9.95;;
3197;SDS011;1611;49.394;11.136;2023-02-20T05:47:14;12.75;;;9.70;;
3197;SDS011;1611;49.394;11.136;2023-02-20T05:49:42;13.55;;;9.18;;
3197;SDS011;1611;49.394;11.136;2023-02-20T05:52:19;14.63;;;10.20;;
3197;SDS011;1611;49.394;11.136;2023-02-20T05:54:46;15.07;;;10.43;;
3197;SDS011;1611;49.394;11.136;2023-02-20T05:57:15;15.57;;;10.80;;
3197;SDS011;1611;49.394;11.136;2023-02-20T05:59:43;14.70;;;9.93;;
3197;SDS011;1611;49.394;11.136;2023-02-20T06:02:10;18.05;;;9.30;;
3197;SDS011;1611;49.394;11.136;2023-02-20T06:04:39;19.42;;;10.57;;
3197;SDS011;1611;49.394;11.136;2023-02-20T06:07:06;17.40;;;10.32;;
3197;SDS011;1611;49.394;11.136;2023-02-20T06:09:44;16.27;;;10.90;;
3197;SDS011;1611;49.394;11.136;2023-02-20T06:12:11;15.60;;;9.95;;
3197;SDS011;1611;49.394;11.136;2023-02-20T06:14:42;16.90;;;10.68;;
3197;SDS011;1611;49.394;11.136;2023-02-20T06:17:12;15.90;;;10.07;;
3197;SDS011;1611;49.394;11.136;2023-02-20T06:19:45;14.57;;;9.98;;
3197;SDS011;1611;49.394;11.136;2023-02-20T06:22:12;20.10;;;10.60;;
3197;SDS011;1611;49.394;11.136;2023-02-20T06:24:39;19.48;;;10.45;;
3197;SDS011;1611;49.394;11.136;2023-02-20T06:27:11;19.52;;;9.00;;
3197;SDS011;1611;49.394;11.136;2023-02-20T06:29:40;16.13;;;9.48;;
3197;SDS011;1611;49.394;11.136;2023-02-20T06:32:14;33.42;;;10.30;;
3197;SDS011;1611;49.394;11.136;2023-02-20T06:34:42;15.45;;;9.50;;
3197;SDS011;1611;49.394;11.136;2023-02-20T06:37:14;19.08;;;8.65;;
3197;SDS011;1611;49.394;11.136;2023-02-20T06:39:41;13.73;;;9.45;;
3197;SDS011;1611;49.394;11.136;2023-02-20T06:42:18;14.60;;;9.15;;
3197;SDS011;1611;49.394;11.136;2023-02-20T06:44:46;15.77;;;8.32;;
3197;SDS011;1611;49.394;11.136;2023-02-20T06:47:17;13.50;;;9.40;;
3197;SDS011;1611;49.394;11.136;2023-02-20T06:49:45;11.65;;;8.57;;
3197;SDS011;1611;49.394;11.136;2023-02-20T06:52:12;14.18;;;8.50;;
3197;SDS011;1611;49.394;11.136;2023-02-20T06:54:39;16.20;;;7.97;;
3197;SDS011;1611;49.394;11.136;2023-02-20T06:57:06;13.00;;;8.63;;
3197;SDS011;1611;49.394;11.136;2023-02-20T06:59:36;15.18;;;9.90;;
3197;SDS011;1611;49.394;11.136;2023-02-20T07:02:05;16.00;;;8.60;;
3197;SDS011;1611;49.394;11.136;2023-02-20T07:04:35;14.50;;;8.30;;
3197;SDS011;1611;49.394;11.136;2023-02-20T07:07:05;10.00;;;8.50;;
3197;SDS011;1611;49.394;11.136;2023-02-20T07:09:32;20.23;;;10.02;;
3197;SDS011;1611;49.394;11.136;2023-02-20T07:11:59;14.45;;;9.55;;
3197;SDS011;1611;49.394;11.136;2023-02-20T07:14:29;17.10;;;9.30;;
3197;SDS011;1611;49.394;11.136;2023-02-20T07:17:03;12.05;;;8.85;;
3197;SDS011;1611;49.394;11.136;2023-02-20T07:19:30;26.65;;;9.02;;
3197;SDS011;1611;49.394;11.136;2023-02-20T07:22:00;16.92;;;9.65;;
3197;SDS011;1611;49.394;11.136;2023-02-20T07:25:01;16.50;;;9.43;;
3197;SDS011;1611;49.394;11.136;2023-02-20T07:27:39;18.20;;;9.90;;
3197;SDS011;1611;49.394;11.136;2023-02-20T07:30:06;15.60;;;8.38;;
3197;SDS011;1611;49.394;11.136;2023-02-20T07:32:36;22.30;;;8.60;;
3197;SDS011;1611;49.394;11.136;2023-02-20T07:35:04;18.77;;;10.15;;
3197;SDS011;1611;49.394;11.136;2023-02-20T07:37:38;13.88;;;8.80;;
3197;SDS011;1611;49.394;11.136;2023-02-20T07:40:05;13.82;;;9.10;;
3197;SDS011;1611;49.394;11.136;2023-02-20T07:42:40;26.35;;;9.68;;
3197;SDS011;1611;49.394;11.136;2023-02-20T07:45:08;15.03;;;7.50;;
3197;SDS011;1611;49.394;11.136;2023-02-20T07:47:43;16.65;;;8.98;;
3197;SDS011;1611;49.394;11.136;2023-02-20T07:50:10;12.15;;;8.18;;
3197;SDS011;1611;49.394;11.136;2023-02-20T07:52:47;9.57;;;7.20;;
3197;SDS011;1611;49.394;11.136;2023-02-20T07:55:15;23.13;;;7.47;;
3197;SDS011;1611;49.394;11.136;2023-02-20T07:58:06;11.83;;;7.10;;
3197;SDS011;1611;49.394;11.136;2023-02-20T08:01:18;10.27;;;6.70;;
3197;SDS011;1611;49.394;11.136;2023-02-20T08:03:48;9.00;;;5.70;;
3197;SDS011;1611;49.394;11.136;2023-02-20T08:06:19;11.43;;;5.45;;
3197;SDS011;1611;49.394;11.136;2023-02-20T08:08:54;9.13;;;5.60;;
3197;SDS011;1611;49.394;11.136;2023-02-20T08:11:22;9.38;;;5.43;;
3197;SDS011;1611;49.394;11.136;2023-02-20T08:13:51;10.13;;;4.85;;
3197;SDS011;1611;49.394;11.136;2023-02-20T08:16:19;9.07;;;4.80;;
3197;SDS011;1611;49.394;11.136;2023-02-20T08:18:56;12.57;;;5.45;;
3197;SDS011;1611;49.394;11.136;2023-02-20T08:21:23;13.70;;;5.40;;
3197;SDS011;1611;49.394;11.136;2023-02-20T08:23:58;8.30;;;5.40;;
3197;SDS011;1611;49.394;11.136;2023-02-20T08:26:25;11.67;;;5.20;;
3197;SDS011;1611;49.394;11.136;2023-02-20T08:29:01;11.60;;;5.30;;
3197;SDS011;1611;49.394;11.136;2023-02-20T08:31:30;9.23;;;4.83;;
3197;SDS011;1611;49.394;11.136;2023-02-20T08:34:02;12.80;;;5.03;;
3197;SDS011;1611;49.394;11.136;2023-02-20T08:36:29;7.80;;;4.80;;
3197;SDS011;1611;49.394;11.136;2023-02-20T08:39:02;12.43;;;5.23;;
3197;SDS011;1611;49.394;11.136;2023-02-20T08:41:29;7.07;;;4.27;;
3197;SDS011;1611;49.394;11.136;2023-02-20T08:43:57;8.10;;;4.77;;
3197;SDS011;1611;49.394;11.136;2023-02-20T08:46:25;11.90;;;4.80;;
3197;SDS011;1611;49.394;11.136;2023-02-20T08:48:53;9.80;;;4.87;;
3197;SDS011;1611;49.394;11.136;2023-02-20T08:51:21;7.70;;;4.20;;
3197;SDS011;1611;49.394;11.136;2023-02-20T08:53:50;6.43;;;4.53;;
3197;SDS011;1611;49.394;11.136;2023-02-20T08:56:20;8.73;;;4.40;;
3197;SDS011;1611;49.394;11.136;2023-02-20T08:58:46;7.13;;;4.00;;
3197;SDS011;1611;49.394;11.136;2023-02-20T09:01:13;7.27;;;3.50;;
3197;SDS011;1611;49.394;11.136;2023-02-20T09:03:40;12.60;;;4.40;;
3197;SDS011;1611;49.394;11.136;2023-02-20T09:06:07;5.87;;;3.93;;
3197;SDS011;1611;49.394;11.136;2023-02-20T09:08:35;10.00;;;4.00;;
3197;SDS011;1611;49.394;11.136;2023-02-20T09:11:02;6.87;;;3.90;;
3197;SDS011;1611;49.394;11.136;2023-02-20T09:13:29;7.90;;;4.00;;
3197;SDS011;1611;49.394;11.136;2023-02-20T09:15:56;7.63;;;3.93;;
3197;SDS011;1611;49.394;11.136;2023-02-20T09:18:23;8.00;;;3.93;;
3197;SDS011;1611;49.394;11.136;2023-02-20T09:20:49;13.17;;;3.87;;
3197;SDS011;1611;49.394;11.136;2023-02-20T09:23:16;12.00;;;4.73;;
3197;SDS011;1611;49.394;11.136;2023-02-20T09:25:46;7.40;;;4.03;;
3197;SDS011;1611;49.394;11.136;2023-02-20T09:28:13;7.37;;;3.73;;
3197;SDS011;1611;49.394;11.136;2023-02-20T09:30:39;7.20;;;4.13;;
3197;SDS011;1611;49.394;11.136;2023-02-20T09:33:06;7.70;;;4.00;;
3197;SDS011;1611;49.394;11.136;2023-02-20T09:35:33;4.37;;;4.07;;
3197;SDS011;1611;49.394;11.136;2023-02-20T09:38:00;6.63;;;4.20;;
3197;SDS011;1611;49.394;11.136;2023-02-20T09:40:28;6.73;;;3.77;;
3197;SDS011;1611;49.394;11.136;2023-02-20T09:43:01;15.10;;;4.93;;
3197;SDS011;1611;49.394;11.136;2023-02-20T09:45:40;8.93;;;4.13;;
3197;SDS011;1611;49.394;11.136;2023-02-20T09:48:14;9.50;;;3.77;;
3197;SDS011;1611;49.394;11.136;2023-02-20T09:50:52;7.53;;;4.07;;
3197;SDS011;1611;49.394;11.136;2023-02-20T09:53:24;5.50;;;3.60;;
3197;SDS011;1611;49.394;11.136;2023-02-20T09:55:56;7.00;;;3.17;;
3197;SDS011;1611;49.394;11.136;2023-02-20T09:58:26;6.80;;;4.20;;
3197;SDS011;1611;49.394;11.136;2023-02-20T10:01:03;10.00;;;4.50;;
3197;SDS011;1611;49.394;11.136;2023-02-20T10:03:33;9.20;;;3.57;;
3197;SDS011;1611;49.394;11.136;2023-02-20T10:06:08;5.67;;;3.03;;
3197;SDS011;1611;49.394;11.136;2023-02-20T10:08:40;5.50;;;3.03;;
3197;SDS011;1611;49.394;11.136;2023-02-20T10:11:07;5.37;;;3.50;;
3197;SDS011;1611;49.394;11.136;2023-02-20T10:13:43;5.80;;;3.40;;
3197;SDS011;1611;49.394;11.136;2023-02-20T10:16:22;5.63;;;3.17;;
3197;SDS011;1611;49.394;11.136;2023-02-20T10:18:57;6.57;;;3.40;;
3197;SDS011;1611;49.394;11.136;2023-02-20T10:21:38;7.83;;;3.63;;
3197;SDS011;1611;49.394;11.136;2023-02-20T10:24:20;6.50;;;3.73;;
3197;SDS011;1611;49.394;11.136;2023-02-20T10:26:53;8.40;;;3.50;;
3197;SDS011;1611;49.394;11.136;2023-02-20T10:29:26;5.83;;;3.47;;
3197;SDS011;1611;49.394;11.136;2023-02-20T10:31:59;9.83;;;4.10;;
3197;SDS011;1611;49.394;11.136;2023-02-20T10:34:29;4.93;;;3.27;;
3197;SDS011;1611;49.394;11.136;2023-02-20T10:37:03;5.70;;;2.83;;
3197;SDS011;1611;49.394;11.136;2023-02-20T10:39:35;7.73;;;2.80;;
3197;SDS011;1611;49.394;11.136;2023-02-20T10:42:07;4.40;;;2.13;;
3197;SDS011;1611;49.394;11.136;2023-02-20T10:44:40;4.60;;;3.17;;
3197;SDS011;1611;49.394;11.136;2023-02-20T10:47:12;7.30;;;2.80;;
3197;SDS011;1611;49.394;11.136;2023-02-20T10:49:46;4.23;;;3.00;;
3197;SDS011;1611;49.394;11.136;2023-02-20T10:52:23;8.03;;;2.70;;
3197;SDS011;1611;49.394;11.136;2023-02-20T10:54:54;3.20;;;2.63;;
3197;SDS011;1611;49.394;11.136;2023-02-20T10:57:29;13.73;;;3.03;;
3197;SDS011;1611;49.394;11.136;2023-02-20T11:00:02;4.73;;;2.43;;
3197;SDS011;1611;49.394;11.136;2023-02-20T11:02:33;5.10;;;2.80;;
3197;SDS011;1611;49.394;11.136;2023-02-20T11:05:06;8.47;;;3.30;;
3197;SDS011;1611;49.394;11.136;2023-02-20T11:07:37;5.10;;;2.87;;
3197;SDS011;1611;49.394;11.136;2023-02-20T11:10:04;4.30;;;2.60;;
3197;SDS011;1611;49.394;11.136;2023-02-20T11:12:32;10.37;;;4.50;;
3197;SDS011;1611;49.394;11.136;2023-02-20T11:15:06;5.43;;;3.13;;
3197;SDS011;1611;49.394;11.136;2023-02-20T11:17:35;6.43;;;2.87;;
3197;SDS011;1611;49.394;11.136;2023-02-20T11:20:05;4.33;;;2.83;;
3197;SDS011;1611;49.394;11.136;2023-02-20T11:22:52;5.80;;;3.10;;
3197;SDS011;1611;49.394;11.136;2023-02-20T11:25:25;6.83;;;2.90;;
3197;SDS011;1611;49.394;11.136;2023-02-20T11:27:54;4.97;;;2.60;;
3197;SDS011;1611;49.394;11.136;2023-02-20T11:30:27;4.40;;;2.83;;
3197;SDS011;1611;49.394;11.136;2023-02-20T11:33:03;5.50;;;2.40;;
3197;SDS011;1611;49.394;11.136;2023-02-20T11:35:34;5.10;;;2.60;;
3197;SDS011;1611;49.394;11.136;2023-02-20T11:38:17;4.30;;;2.83;;
3197;SDS011;1611;49.394;11.136;2023-02-20T11:44:17;6.40;;;2.80;;
3197;SDS011;1611;49.394;11.136;2023-02-20T11:46:47;2.80;;;2.60;;
3197;SDS011;1611;49.394;11.136;2023-02-20T11:49:35;4.13;;;2.40;;
3197;SDS011;1611;49.394;11.136;2023-02-20T11:52:06;10.97;;;2.53;;
3197;SDS011;1611;49.394;11.136;2023-02-20T11:54:35;5.23;;;1.87;;
3197;SDS011;1611;49.394;11.136;2023-02-20T11:57:03;5.37;;;2.03;;
3197;SDS011;1611;49.394;11.136;2023-02-20T11:59:33;5.90;;;2.70;;
3197;SDS011;1611;49.394;11.136;2023-02-20T12:05:07;3.93;;;2.53;;
3197;SDS011;1611;49.394;11.136;2023-02-20T12:07:37;5.47;;;2.50;;
3197;SDS011;1611;49.394;11.136;2023-02-20T12:12:53;4.90;;;2.77;;
3197;SDS011;1611;49.394;11.136;2023-02-20T12:15:22;4.20;;;2.57;;
3197;SDS011;1611;49.394;11.136;2023-02-20T12:20:56;2.57;;;2.37;;
3197;SDS011;1611;49.394;11.136;2023-02-20T12:23:31;2.27;;;2.13;;
3197;SDS011;1611;49.394;11.136;2023-02-20T12:26:08;8.90;;;3.03;;
3197;SDS011;1611;49.394;11.136;2023-02-20T12:28:47;4.50;;;2.93;;
3197;SDS011;1611;49.394;11.136;2023-02-20T12:31:25;2.50;;;2.27;;
3197;SDS011;1611;49.394;11.136;2023-02-20T12:34:15;4.13;;;2.27;;
3197;SDS011;1611;49.394;11.136;2023-02-20T12:37:02;7.77;;;2.50;;
3197;SDS011;1611;49.394;11.136;2023-02-20T12:39:35;4.20;;;2.50;;
3197;SDS011;1611;49.394;11.136;2023-02-20T12:42:11;7.50;;;2.47;;
3197;SDS011;1611;49.394;11.136;2023-02-20T12:45:02;3.03;;;2.20;;
3197;SDS011;1611;49.394;11.136;2023-02-20T12:47:40;5.30;;;3.20;;
3197;SDS011;1611;49.394;11.136;2023-02-20T12:53:09;2.20;;;2.07;;
3197;SDS011;1611;49.394;11.136;2023-02-20T12:55:45;3.43;;;2.70;;
3197;SDS011;1611;49.394;11.136;2023-02-20T12:58:20;4.43;;;2.23;;
3197;SDS011;1611;49.394;11.136;2023-02-20T13:00:57;4.70;;;2.50;;
3197;SDS011;1611;49.394;11.136;2023-02-20T13:03:30;6.00;;;2.00;;
3197;SDS011;1611;49.394;11.136;2023-02-20T13:06:06;7.93;;;2.50;;
3197;SDS011;1611;49.394;11.136;2023-02-20T13:08:35;5.50;;;2.20;;
3197;SDS011;1611;49.394;11.136;2023-02-20T13:11:10;3.93;;;2.40;;
3197;SDS011;1611;49.394;11.136;2023-02-20T13:13:43;2.37;;;2.17;;
3197;SDS011;1611;49.394;11.136;2023-02-20T13:16:29;2.50;;;2.23;;
3197;SDS011;1611;49.394;11.136;2023-02-20T13:19:01;7.70;;;2.60;;
3197;SDS011;1611;49.394;11.136;2023-02-20T13:21:32;2.97;;;1.90;;
3197;SDS011;1611;49.394;11.136;2023-02-20T13:24:12;5.00;;;2.50;;
3197;SDS011;1611;49.394;11.136;2023-02-20T13:26:52;5.70;;;2.40;;
3197;SDS011;1611;49.394;11.136;2023-02-20T13:29:21;4.93;;;2.47;;
3197;SDS011;1611;49.394;11.136;2023-02-20T13:31:51;5.30;;;2.50;;
3197;SDS011;1611;49.394;11.136;2023-02-20T13:34:25;8.53;;;2.90;;
3197;SDS011;1611;49.394;11.136;2023-02-20T13:36:55;5.33;;;2.43;;
3197;SDS011;1611;49.394;11.136;2023-02-20T13:42:30;2.87;;;2.40;;
3197;SDS011;1611;49.394;11.136;2023-02-20T13:45:00;6.00;;;2.33;;
3197;SDS011;1611;49.394;11.136;2023-02-20T13:50:28;4.20;;;2.10;;
3197;SDS011;1611;49.394;11.136;2023-02-20T13:52:59;5.63;;;2.40;;
3197;SDS011;1611;49.394;11.136;2023-02-20T13:55:28;7.20;;;2.17;;
3197;SDS011;1611;49.394;11.136;2023-02-20T13:58:00;3.10;;;2.00;;
3197;SDS011;1611;49.394;11.136;2023-02-20T14:00:33;6.17;;;2.50;;
3197;SDS011;1611;49.394;11.136;2023-02-20T14:03:09;2.93;;;2.33;;
3197;SDS011;1611;49.394;11.136;2023-02-20T14:05:37;4.97;;;2.47;;
3197;SDS011;1611;49.394;11.136;2023-02-20T14:08:09;2.03;;;1.70;;
3197;SDS011;1611;49.394;11.136;2023-02-20T14:10:42;3.83;;;1.90;;
3197;SDS011;1611;49.394;11.136;2023-02-20T14:13:13;5.10;;;1.80;;
3197;SDS011;1611;49.394;11.136;2023-02-20T14:15:44;2.97;;;1.80;;
3197;SDS011;1611;49.394;11.136;2023-02-20T14:18:13;7.40;;;1.63;;
3197;SDS011;1611;49.394;11.136;2023-02-20T14:20:42;2.53;;;2.33;;
3197;SDS011;1611;49.394;11.136;2023-02-20T14:23:18;2.90;;;2.27;;
3197;SDS011;1611;49.394;11.136;2023-02-20T14:25:53;7.93;;;2.50;;
3197;SDS011;1611;49.394;11.136;2023-02-20T14:28:21;6.30;;;2.57;;
3197;SDS011;1611;49.394;11.136;2023-02-20T14:31:01;3.30;;;2.00;;
3197;SDS011;1611;49.394;11.136;2023-02-20T14:33:30;4.43;;;1.97;;
3197;SDS011;1611;49.394;11.136;2023-02-20T14:36:04;6.03;;;1.80;;
3197;SDS011;1611;49.394;11.136;2023-02-20T14:38:46;5.13;;;1.80;;
3197;SDS011;1611;49.394;11.136;2023-02-20T14:41:23;3.00;;;1.73;;
3197;SDS011;1611;49.394;11.136;2023-02-20T14:43:53;2.80;;;1.60;;
3197;SDS011;1611;49.394;11.136;2023-02-20T14:46:23;3.20;;;1.90;;
3197;SDS011;1611;49.394;11.136;2023-02-20T14:49:02;5.30;;;1.80;;
3197;SDS011;1611;49.394;11.136;2023-02-20T14:51:31;6.63;;;2.33;;
3197;SDS011;1611;49.394;11.136;2023-02-20T14:54:00;3.50;;;2.40;;
3197;SDS011;1611;49.394;11.136;2023-02-20T14:56:28;2.03;;;1.93;;
3197;SDS011;1611;49.394;11.136;2023-02-20T14:58:56;2.23;;;1.30;;
3197;SDS011;1611;49.394;11.136;2023-02-20T15:01:32;2.53;;;1.70;;
3197;SDS011;1611;49.394;11.136;2023-02-20T15:04:04;1.93;;;1.83;;
3197;SDS011;1611;49.394;11.136;2023-02-20T15:06:37;2.33;;;1.63;;
3197;SDS011;1611;49.394;11.136;2023-02-20T15:09:06;6.17;;;1.60;;
3197;SDS011;1611;49.394;11.136;2023-02-20T15:11:33;6.03;;;2.03;;
3197;SDS011;1611;49.394;11.136;2023-02-20T15:14:02;3.27;;;1.93;;
3197;SDS011;1611;49.394;11.136;2023-02-20T15:16:29;2.10;;;1.40;;
3197;SDS011;1611;49.394;11.136;2023-02-20T15:18:59;3.83;;;2.00;;
3197;SDS011;1611;49.394;11.136;2023-02-20T15:21:33;2.07;;;1.97;;
3197;SDS011;1611;49.394;11.136;2023-02-20T15:27:05;3.77;;;1.63;;
3197;SDS011;1611;49.394;11.136;2023-02-20T15:29:33;3.37;;;2.07;;
3197;SDS011;1611;49.394;11.136;2023-02-20T15:32:01;3.30;;;1.60;;
3197;SDS011;1611;49.394;11.136;2023-02-20T15:34:30;4.83;;;1.80;;
3197;SDS011;1611;49.394;11.136;2023-02-20T15:36:58;5.13;;;1.77;;
3197;SDS011;1611;49.394;11.136;2023-02-20T15:39:25;2.90;;;1.57;;
3197;SDS011;1611;49.394;11.136;2023-02-20T15:41:54;3.90;;;1.50;;
3197;SDS011;1611;49.394;11.136;2023-02-20T15:44:20;3.30;;;1.60;;
3197;SDS011;1611;49.394;11.136;2023-02-20T15:46:47;2.20;;;1.40;;
3197;SDS011;1611;49.394;11.136;2023-02-20T15:49:14;2.50;;;1.43;;
3197;SDS011;1611;49.394;11.136;2023-02-20T15:51:41;1.67;;;1.40;;